• Join FlightAware (Why Join?)
  • Login
  • US Flag 
10:45AM EDT


 

Airport Tracker/Info


-or-


 

Live Flight TrackerFlight Track Log ✈ SWA1688 ✈ 09-May-2013 ✈ KMCO - KALB

Flight Track Log - Related Links

Times and Time Zones

All times are in EDT time to prevent confusion due to time zone crossing. See the SWA1688 flight status page for this flight to view local times or setup timezone preferences in your user account.

Time Position Orientation Groundspeed Altitude Reporting Facility
EDT Latitude Longitude Course Direction KTS MPH feet Rate Location/Type
09:27PM 28.4167 -81.3000 156° South 153 176 800  Level Orlando TRACON
09:28PM 28.3833 -81.2833 156° South 193 222 2,300 2,640 Climbing Orlando TRACON
09:29PM 28.4167 -81.2333 53° Northeast 222 255 5,100 3,360 Climbing Orlando TRACON
09:30PM 28.4833 -81.2500 348° North 283 326 9,100 3,480 Climbing Orlando TRACON
09:33PM 28.6972 -81.2997 348° North 363 418 17,200 3,360 Climbing Jacksonville Center
09:34PM 28.7978 -81.3242 348° North 363 418 20,500 3,180 Climbing Jacksonville Center
09:35PM 28.9067 -81.3486 349° North 375 432 23,600 3,000 Climbing Jacksonville Center
09:36PM 29.0175 -81.3728 349° North 402 463 26,500 2,700 Climbing Jacksonville Center
09:37PM 29.1347 -81.3950 351° North 417 480 29,100 2,400 Climbing Jacksonville Center
09:38PM 29.2517 -81.4050 356° North 422 486 31,300 2,460 Climbing Jacksonville Center
09:39PM 29.3686 -81.4175 355° North 423 487 34,100 2,340 Climbing Jacksonville Center
09:40PM 29.4711 -81.4303 354° North 417 480 36,000 1,740 Climbing Jacksonville Center
09:41PM 29.5881 -81.4261 North 417 480 37,600 1,680 Climbing Jacksonville Center
09:42PM 29.7069 -81.4172 North 422 486 39,400 1,680 Climbing Jacksonville Center
09:43PM 29.8194 -81.4036 North 417 480 41,000 780 Climbing Jacksonville Center
09:44PM 29.9361 -81.3944 North 417 480 41,000  Level Jacksonville Center
09:45PM 30.0531 -81.3831 North 417 480 41,000  Level Jacksonville Center
09:46PM 30.1678 -81.3742 North 417 480 41,000  Level Jacksonville Center
09:47PM 30.2825 -81.3650 North 417 480 41,000  Level Jacksonville Center
09:48PM 30.4097 -81.3511 North 417 480 41,000  Level Jacksonville Center
09:49PM 30.5222 -81.3419 North 412 474 41,000  Level Jacksonville Center
09:50PM 30.6411 -81.3328 North 412 474 41,000  Level Jacksonville Center
09:51PM 30.7539 -81.3236 North 412 474 41,000  Level Jacksonville Center
09:52PM 30.8681 -81.2856 16° North 412 474 41,000  Level Jacksonville Center
09:53PM 30.9803 -81.2328 22° Northeast 417 480 41,000  Level Jacksonville Center
09:54PM 31.0922 -81.1822 21° North 428 493 41,000  Level Jacksonville Center
09:55PM 31.2022 -81.1317 21° North 434 499 41,000  Level Jacksonville Center
09:56PM 31.3164 -81.0783 22° Northeast 434 499 41,000  Level Jacksonville Center
09:57PM 31.4158 -81.0253 24° Northeast 433 498 41,000  Level Jacksonville Center
09:58PM 31.5381 -80.9694 21° North 433 498 41,000  Level Jacksonville Center
09:59PM 31.6481 -80.9183 22° Northeast 426 490 41,000  Level Jacksonville Center
10:00PM 31.7475 -80.8722 22° Northeast 426 490 41,000  Level Jacksonville Center
10:01PM 31.8697 -80.8156 21° North 431 496 41,000  Level Jacksonville Center
10:02PM 31.9775 -80.7617 23° Northeast 431 496 41,000  Level Jacksonville Center
10:03PM 32.0872 -80.7128 21° North 426 490 41,000  Level Jacksonville Center
10:04PM 32.1928 -80.6611 22° Northeast 415 478 41,000  Level Jacksonville Center
10:05PM 32.3006 -80.6092 22° Northeast 410 472 41,000  Level Jacksonville Center
10:06PM 32.4081 -80.5575 22° Northeast 411 473 41,000  Level Jacksonville Center
10:07PM 32.5156 -80.5053 22° Northeast 411 473 41,000  Level Jacksonville Center
10:08PM 32.6231 -80.4508 23° Northeast 411 473 41,000  Level Jacksonville Center
10:09PM 32.7328 -80.3983 22° Northeast 411 473 41,000  Level Jacksonville Center
10:10PM 32.8403 -80.3433 23° Northeast 411 473 41,000  Level Jacksonville Center
10:11PM 32.9517 -80.2858 23° Northeast 411 473 41,000  Level Jacksonville Center
10:12PM 33.0572 -80.2381 21° North 441 507 41,000  Level Jacksonville Center
10:13PM 33.1583 -80.1856 23° Northeast 427 491 41,000  Level Jacksonville Center
10:14PM 33.2739 -80.1300 22° Northeast 432 497 41,000  Level Jacksonville Center
10:15PM 33.3814 -80.0769 22° Northeast 427 491 41,000  Level Jacksonville Center
10:16PM 33.4886 -80.0211 23° Northeast 422 486 41,000  Level Jacksonville Center
10:17PM 33.5958 -79.9678 23° Northeast 422 486 41,000  Level Jacksonville Center
10:18PM 33.7031 -79.9117 24° Northeast 417 480 41,000  Level Jacksonville Center
10:19PM 33.8125 -79.8556 23° Northeast 417 480 41,000  Level Jacksonville Center
10:20PM 33.9197 -79.8044 22° Northeast 417 480 41,000  Level Jacksonville Center
10:21PM 34.0267 -79.7481 24° Northeast 412 474 41,000  Level Jacksonville Center
10:22PM 34.1964 -79.6644 22° Northeast 390 449 41,000  Level Washington Center
10:23PM 34.3133 -79.6022 24° Northeast 400 460 41,000  Level Washington Center
10:24PM 34.4172 -79.5494 23° Northeast 400 460 41,000  Level Washington Center
10:25PM 34.5214 -79.4939 24° Northeast 400 460 41,000  Level Washington Center
10:26PM 34.6253 -79.4408 23° Northeast 405 466 41,000  Level Washington Center
10:27PM 34.7272 -79.3875 23° Northeast 405 466 41,000  Level Washington Center
10:28PM 34.8311 -79.3342 23° Northeast 400 460 41,000  Level Washington Center
10:29PM 34.9369 -79.2783 23° Northeast 400 460 41,000  Level Washington Center
10:30PM 35.0408 -79.2247 23° Northeast 400 460 41,000  Level Washington Center
10:31PM 35.1469 -79.1686 23° Northeast 400 460 41,000  Level Washington Center
10:32PM 35.2528 -79.1172 22° Northeast 405 466 41,000  Level Washington Center
10:33PM 35.3589 -79.0608 23° Northeast 405 466 41,000  Level Washington Center
10:34PM 35.4669 -79.0017 24° Northeast 405 466 41,000  Level Washington Center
10:35PM 35.5750 -78.9475 22° Northeast 405 466 41,000  Level Washington Center
10:36PM 35.6828 -78.8908 23° Northeast 405 466 41,000  Level Washington Center
10:37PM 35.7908 -78.8314 24° Northeast 405 466 41,000  Level Washington Center
10:38PM 35.8928 -78.7686 27° Northeast 405 466 41,000  Level Washington Center
10:39PM 35.9908 -78.6856 34° Northeast 411 473 41,000  Level Washington Center
10:40PM 36.0742 -78.6117 36° Northeast 416 479 41,000  Level Washington Center
10:41PM 36.1703 -78.5278 35° Northeast 416 479 41,000  Level Washington Center
10:42PM 36.2639 -78.4436 36° Northeast 416 479 41,000  Level Washington Center
10:43PM 36.3600 -78.3594 35° Northeast 416 479 41,000  Level Washington Center
10:44PM 36.4558 -78.2725 36° Northeast 416 479 41,000  Level Washington Center
10:45PM 36.5494 -78.1878 36° Northeast 416 479 41,000  Level Washington Center
10:46PM 36.6517 -78.0878 38° Northeast 416 479 41,000  Level Washington Center
10:47PM 36.7472 -78.0025 36° Northeast 421 484 41,000  Level Washington Center
10:48PM 36.8408 -77.9172 36° Northeast 421 484 41,000  Level Washington Center
10:49PM 36.9406 -77.8242 37° Northeast 421 484 41,000  Level Washington Center
10:50PM 37.0403 -77.7308 37° Northeast 433 498 41,000  Level Washington Center
10:51PM 37.1381 -77.6397 37° Northeast 439 505 41,000  Level Washington Center
10:52PM 37.2375 -77.5483 36° Northeast 439 505 41,000  Level Washington Center
10:53PM 37.3328 -77.4569 37° Northeast 444 511 41,000  Level Washington Center
10:54PM 37.4344 -77.3625 36° Northeast 444 511 41,000  Level Washington Center
10:55PM 37.5339 -77.2678 37° Northeast 444 511 41,000  Level Washington Center
10:56PM 37.6353 -77.1706 37° Northeast 444 511 41,000  Level Washington Center
10:57PM 37.7367 -77.0728 37° Northeast 444 511 41,000  Level Washington Center
10:58PM 37.8314 -76.9800 38° Northeast 444 511 41,000  Level Washington Center
10:59PM 37.9306 -76.8844 37° Northeast 444 511 41,000  Level Washington Center
11:00PM 38.0297 -76.7886 37° Northeast 444 511 41,000  Level Washington Center
11:01PM 38.1264 -76.6950 37° Northeast 444 511 41,000  Level Washington Center
11:02PM 38.2231 -76.6014 37° Northeast 444 511 41,000  Level Washington Center
11:03PM 38.3008 -76.5256 37° Northeast 444 511 41,000  Level Washington Center
11:04PM 38.4039 -76.4236 38° Northeast 439 505 41,000 -480 Level Washington Center
11:05PM 38.5025 -76.3267 38° Northeast 439 505 40,100 -900 Descending Washington Center
11:06PM 38.5989 -76.2319 38° Northeast 439 505 39,200 -600 Descending Washington Center
11:07PM 38.6972 -76.1397 36° Northeast 439 505 39,000 -120 Descending Washington Center
11:08PM 38.7936 -76.0444 38° Northeast 439 505 39,000  Level Washington Center
11:09PM 38.8878 -75.9489 38° Northeast 439 505 39,000  Level Washington Center
11:10PM 38.9861 -75.8506 38° Northeast 439 505 39,000  Level Washington Center
11:11PM 39.0842 -75.7575 36° Northeast 439 505 39,000  Level Washington Center
11:12PM 39.1800 -75.6558 39° Northeast 439 505 39,000  Level Washington Center
11:13PM 39.2758 -75.5594 38° Northeast 439 505 39,000 -60 Level Washington Center
11:14PM 39.3717 -75.4628 38° Northeast 439 505 38,900 -780 Descending Washington Center
11:16PM 39.5822 -75.2503 38° Northeast 434 499 36,600 -1,020 Descending New York Center
11:17PM 39.6733 -75.1592 38° Northeast 429 494 35,700 -840 Descending New York Center
11:18PM 39.7603 -75.0619 41° Northeast 416 479 35,000 -360 Descending New York Center
11:19PM 39.8489 -74.9753 37° Northeast 410 472 35,000  Level New York Center
11:20PM 39.9378 -74.8778 40° Northeast 410 472 35,000  Level New York Center
11:21PM 40.0269 -74.7747 41° Northeast 421 484 35,000  Level New York Center
11:22PM 40.1156 -74.6767 40° Northeast 421 484 35,000  Level New York Center
11:23PM 40.2025 -74.5728 42° Northeast 415 478 35,000  Level New York Center
11:24PM 40.2958 -74.4556 44° Northeast 410 472 35,000  Level New York Center
11:25PM 40.3822 -74.3511 43° Northeast 410 472 35,000 -1,500 Level New York Center
11:28PM 40.6128 -74.0778 42° Northeast 414 476 29,400 -2,340 Descending Boston Center
11:29PM 40.7042 -73.9678 42° Northeast 408 470 26,400 -2,700 Descending Boston Center
11:30PM 40.7825 -73.8736 42° Northeast 380 437 24,100 -1,200 Descending Boston Center
11:31PM 40.8628 -73.7767 42° Northeast 380 437 24,000 -60 Descending Boston Center
11:32PM 40.9411 -73.6819 42° Northeast 380 437 24,000 -540 Level Boston Center
11:33PM 41.0150 -73.5872 44° Northeast 380 437 23,000 -540 Descending Boston Center
11:34PM 41.1111 -73.5614 11° North 339 390 23,000  Level Boston Center
11:35PM 41.2089 -73.5769 353° North 332 382 23,000 -180 Level Boston Center
11:36PM 41.3086 -73.5897 355° North 337 388 22,700 -660 Descending Boston Center
11:37PM 41.4064 -73.6053 353° North 351 404 21,700 -1,020 Descending Boston Center
11:38PM 41.5064 -73.6208 353° North 351 404 20,700 -1,020 Descending Boston Center
11:39PM 41.6022 -73.6367 353° North 351 404 19,700 -1,020 Descending Boston Center
11:40PM 41.7019 -73.6497 354° North 351 404 18,700 -960 Descending Boston Center
11:41PM 41.7872 -73.6625 354° North 351 404 17,800 -1,260 Descending Boston Center
11:42PM 41.8914 -73.6756 355° North 346 398 16,000 -2,100 Descending Boston Center
11:43PM 41.9975 -73.6917 354° North 331 381 13,300 -2,220 Descending Boston Center
11:44PM 42.0683 -73.7042 353° North 318 366 11,600 -1,200 Descending Boston Center
11:45PM 42.1578 -73.7172 354° North 302 348 11,000 -1,020 Descending Boston Center
11:46PM 42.2367 -73.7300 353° North 277 319 9,600 -1,620 Descending Boston Center
11:47PM 42.3011 -73.7425 352° North 267 307 7,800 -2,040 Descending Boston Center
11:48PM 42.3803 -73.7528 355° North 256 295 5,600 -2,040 Descending Boston Center
11:49PM 42.4406 -73.7653 351° North 251 289 3,800 -1,560 Descending Boston Center
11:50PM 42.5133 -73.7781 353° North 251 289 2,500 -660 Descending Boston Center
11:51PM 42.5653 -73.7875 352° North 227 261 2,500 -300 Level Boston Center
11:52PM 42.6194 -73.7972 352° North 188 216 2,000 -480 Descending Boston Center
11:53PM 42.6672 -73.8039 354° North 147 169 1,600 -480 Descending Boston Center
11:54PM 42.7028 -73.8075 356° North 119 137 1,000 -600 Descending Boston Center
11:59PM 42.7491 -73.8020 347° North  Level Estimated